KBPG/BPG METAR and TAF weather

Enter ICAO airport designator
Station Type Date Time Source
KBPG METAR 2021/05/13 00:35 UTC NOAA

KBPG 130035Z AUTO 10009KT 10SM CLR 19/08 A3024 RMK AO2 T01880085


Station Type Date Time Source
KBPG Decoded METAR 2021/05/13 00:35 UTC NOAA

Big Spring, Big Spring McMahon-Wrinkle Airport, TX, United States (KBPG) 32-12N 101-31W
May 12, 2021 - 08:35 PM EDT / 2021.05.13 0035 UTC
Wind: from the E (100 degrees) at 10 MPH (9 KT):0
Visibility: 10 mile(s):0
Sky conditions: clear
Temperature: 65.8 F (18.8 C)
Dew Point: 47.3 F (8.5 C)
Relative Humidity: 51%
Pressure (altimeter): 30.24 in. Hg (1024 hPa)
ob: KBPG 130035Z AUTO 10009KT 10SM CLR 19/08 A3024 RMK AO2 T01880085
cycle: 0

Station Type Date Time Source
KBPG TAF UTC NOAA

Error!

Example: see airport list